Time;durP1;ratioP1;P1;durP2;ratioP2;P2;SDS_P1;SDS_P2;PMS_P1;PMS_P2;Temp;Humidity;BMP_temperature;BMP_pressure;BME280_temperature;BME280_humidity;BME280_pressure;Samples;Min_cycle;Max_cycle;Signal;HPM_P1;HPM_P2
2022/10/13 00:00:07;;;;;;;15.23;8.25;;;;;;;5.74;100.00;99035.03;2623696;28;20059;-80
2022/10/13 00:01:25;;;;;;;15.15;7.82;;;;;;;5.80;100.00;99032.47;2624249;28;20105;-79
2022/10/13 00:02:40;;;;;;;17.33;7.97;;;;;;;5.82;100.00;99030.72;2627418;28;20066;-80
2022/10/13 00:03:56;;;;;;;17.05;7.80;;;;;;;5.78;100.00;99029.84;2624504;28;20508;-80
2022/10/13 00:05:13;;;;;;;19.08;8.65;;;;;;;5.84;100.00;99029.00;2625938;28;20060;-80
2022/10/13 00:06:28;;;;;;;14.43;7.43;;;;;;;5.77;100.00;99033.31;2622875;28;20055;-80
2022/10/13 00:07:44;;;;;;;15.02;7.28;;;;;;;5.74;100.00;99035.03;2625593;28;20090;-79
2022/10/13 00:08:59;;;;;;;14.48;7.15;;;;;;;5.80;100.00;99025.53;2626195;28;20053;-83
2022/10/13 00:10:15;;;;;;;15.50;7.40;;;;;;;5.83;100.00;99032.47;2623996;28;20045;-79
2022/10/13 00:11:31;;;;;;;15.45;7.45;;;;;;;5.73;100.00;99025.50;2623632;28;20048;-83
2022/10/13 00:12:46;;;;;;;17.95;7.57;;;;;;;5.84;100.00;99028.13;2622418;28;20256;-81
2022/10/13 00:14:03;;;;;;;31.00;8.10;;;;;;;5.80;100.00;99027.28;2622234;28;20052;-80
2022/10/13 00:15:19;;;;;;;29.55;8.50;;;;;;;5.82;100.00;99032.44;2625321;28;20056;-80
2022/10/13 00:16:35;;;;;;;26.42;7.88;;;;;;;5.83;100.00;99027.25;2622648;28;20040;-79
2022/10/13 00:17:51;;;;;;;23.58;7.82;;;;;;;5.74;100.00;99022.94;2623091;28;20044;-80
2022/10/13 00:19:06;;;;;;;21.35;7.97;;;;;;;5.60;100.00;99027.25;2626560;28;20048;-80
2022/10/13 00:20:22;;;;;;;19.13;8.10;;;;;;;5.53;100.00;99035.88;2625252;28;20048;-81
2022/10/13 00:21:38;;;;;;;16.13;7.65;;;;;;;5.63;100.00;99029.84;2623376;28;20453;-81
2022/10/13 00:22:53;;;;;;;34.45;7.57;;;;;;;5.73;100.00;99029.00;2622221;28;20059;-80
2022/10/13 00:24:10;;;;;;;33.80;7.80;;;;;;;5.78;100.00;99031.56;2624756;28;20077;-80
2022/10/13 00:25:26;;;;;;;35.03;7.80;;;;;;;5.75;100.00;99036.78;2624769;28;20060;-80
2022/10/13 00:26:42;;;;;;;20.40;7.53;;;;;;;5.72;100.00;99035.03;2628202;28;20482;-79
2022/10/13 00:27:57;;;;;;;31.73;7.07;;;;;;;5.70;100.00;99033.31;2626624;28;20048;-80
2022/10/13 00:29:13;;;;;;;30.88;7.75;;;;;;;5.61;100.00;99036.78;2621356;28;20117;-79
2022/10/13 00:30:33;;;;;;;22.10;7.07;;;;;;;5.70;100.00;99033.31;2621794;28;20087;-80
2022/10/13 00:31:48;;;;;;;19.75;7.18;;;;;;;5.76;100.00;99030.72;2623880;28;20079;-80
2022/10/13 00:33:05;;;;;;;29.55;7.80;;;;;;;5.69;100.00;99029.84;2626492;28;20131;-82
2022/10/13 00:34:20;;;;;;;30.17;7.55;;;;;;;5.68;100.00;99029.84;2623900;28;20204;-79
2022/10/13 00:35:45;;;;;;;17.25;7.18;;;;;;;5.67;100.00;99031.56;2623555;28;20060;-81
2022/10/13 00:37:00;;;;;;;23.83;7.60;;;;;;;5.58;100.00;99029.81;2624481;28;20545;-80
2022/10/13 00:38:18;;;;;;;21.45;7.47;;;;;;;5.50;100.00;99037.59;2623082;28;20079;-81
2022/10/13 00:39:35;;;;;;;19.73;6.70;;;;;;;5.46;100.00;99035.00;2622315;28;20060;-81
2022/10/13 00:40:53;;;;;;;28.88;7.30;;;;;;;5.35;100.00;99028.03;2621686;28;20051;-80
2022/10/13 00:42:11;;;;;;;14.48;6.80;;;;;;;5.43;100.00;99029.78;2623524;28;20044;-80
2022/10/13 00:43:57;;;;;;;18.85;6.50;;;;;;;5.28;100.00;99031.50;2625665;28;20550;-81
2022/10/13 00:45:28;;;;;;;14.77;6.40;;;;;;;5.46;100.00;99025.47;2616845;28;20455;-79
2022/10/13 00:46:44;;;;;;;24.35;6.82;;;;;;;5.56;100.00;99021.16;2623913;28;20052;-81
2022/10/13 00:48:00;;;;;;;17.02;6.63;;;;;;;5.53;100.00;99034.16;2623220;28;20052;-80
2022/10/13 00:49:16;;;;;;;14.25;6.97;;;;;;;5.36;100.00;99026.31;2623648;28;20044;-82
2022/10/13 00:50:38;;;;;;;15.32;7.63;;;;;;;5.28;100.00;99030.59;2622026;28;20133;-80
2022/10/13 00:51:53;;;;;;;23.80;7.07;;;;;;;5.20;100.00;99020.19;2624408;28;20053;-80
2022/10/13 00:53:10;;;;;;;13.20;7.07;;;;;;;5.24;100.00;99019.38;2620986;28;20063;-80
2022/10/13 00:54:26;;;;;;;14.13;7.13;;;;;;;5.33;100.00;99018.53;2623145;28;20059;-80
2022/10/13 00:55:43;;;;;;;15.18;7.13;;;;;;;5.40;100.00;99012.47;2624845;28;20134;-79
2022/10/13 00:57:02;;;;;;;12.32;6.90;;;;;;;5.48;100.00;99017.69;2623224;28;20051;-79
2022/10/13 00:58:22;;;;;;;18.38;6.63;;;;;;;5.49;100.00;99020.28;2627671;28;20055;-79
2022/10/13 00:59:39;;;;;;;20.58;7.10;;;;;;;5.56;100.00;99013.38;2624084;28;20243;-79
2022/10/13 01:00:54;;;;;;;14.88;6.65;;;;;;;5.72;100.00;99006.44;2624325;28;20059;-82
2022/10/13 01:02:10;;;;;;;23.00;6.32;;;;;;;5.62;100.00;99012.53;2623194;28;20106;-81
2022/10/13 01:03:26;;;;;;;26.75;6.68;;;;;;;5.48;100.00;99010.78;2622074;28;20466;-80
2022/10/13 01:04:44;;;;;;;20.08;6.32;;;;;;;5.37;100.00;99015.06;2622963;28;20135;-80
2022/10/13 01:06:02;;;;;;;36.83;7.03;;;;;;;5.69;100.00;99009.06;2625117;28;20048;-80
2022/10/13 01:07:19;;;;;;;18.15;6.80;;;;;;;5.54;100.00;99015.13;2625088;28;20049;-79
2022/10/13 01:08:35;;;;;;;16.58;7.35;;;;;;;5.60;100.00;99011.66;2627386;28;20490;-86
2022/10/13 01:09:50;;;;;;;23.40;7.22;;;;;;;5.42;100.00;99015.94;2622504;28;20113;-80
2022/10/13 01:11:50;;;;;;;13.15;6.65;;;;;;;5.44;100.00;99016.78;2622721;28;20048;-80
2022/10/13 01:13:16;;;;;;;23.58;7.35;;;;;;;5.51;100.00;99008.16;2626222;28;20112;-80
2022/10/13 01:14:38;;;;;;;18.05;6.90;;;;;;;5.47;100.00;99003.84;2622642;28;20052;-80
2022/10/13 01:16:20;;;;;;;14.02;6.72;;;;;;;5.29;100.00;99014.16;2625103;28;20048;-81
2022/10/13 01:17:49;;;;;;;11.98;6.30;;;;;;;5.31;100.00;99012.47;2601451;28;21242;-80
2022/10/13 01:19:33;;;;;;;11.63;6.65;;;;;;;5.42;100.00;99018.53;2624021;28;20763;-80
2022/10/13 01:21:04;;;;;;;20.25;6.55;;;;;;;5.36;100.00;99021.97;2613432;28;20448;-81
2022/10/13 01:22:38;;;;;;;20.90;6.32;;;;;;;5.44;100.00;99019.41;2623976;28;20052;-84
2022/10/13 01:24:12;;;;;;;12.48;5.97;;;;;;;5.54;100.00;99016.81;2611508;28;20079;-80
2022/10/13 01:25:51;;;;;;;16.92;6.72;;;;;;;5.53;100.00;99015.97;2620012;28;20083;-81
2022/10/13 01:27:26;;;;;;;14.50;6.32;;;;;;;5.55;100.00;99018.56;2621909;28;20075;-80
2022/10/13 01:29:10;;;;;;;20.98;7.10;;;;;;;5.64;100.00;99018.59;2621271;28;20493;-80
2022/10/13 01:30:26;;;;;;;23.40;6.53;;;;;;;5.67;100.00;99008.19;2621299;28;20048;-81
2022/10/13 01:31:51;;;;;;;48.22;5.97;;;;;;;5.42;100.00;99015.09;2624369;28;20425;-82
2022/10/13 01:33:26;;;;;;;108.38;9.30;;;;;;;5.62;100.00;99018.56;2624886;28;20040;-81
2022/10/13 01:34:44;;;;;;;94.80;7.95;;;;;;;5.53;100.00;99015.97;2622712;28;20194;-80
2022/10/13 01:36:12;;;;;;;109.55;8.45;;;;;;;5.41;100.00;99015.94;2624248;28;20079;-80
2022/10/13 01:37:31;;;;;;;35.10;7.68;;;;;;;5.50;100.00;99019.44;2622922;28;20060;-81
2022/10/13 01:39:12;;;;;;;48.25;8.18;;;;;;;5.69;100.00;99011.66;2626206;28;20101;-80
2022/10/13 01:40:38;;;;;;;72.50;8.38;;;;;;;5.67;100.00;99005.59;2625238;28;20055;-80
2022/10/13 01:41:59;;;;;;;90.40;8.38;;;;;;;5.70;100.00;99010.78;2626821;28;20516;-80
2022/10/13 01:43:21;;;;;;;90.07;7.80;;;;;;;5.68;100.00;99006.47;2621773;28;20161;-79
2022/10/13 01:44:42;;;;;;;93.82;8.43;;;;;;;5.76;100.00;99007.31;2625257;28;20044;-80
2022/10/13 01:46:05;;;;;;;94.07;8.07;;;;;;;5.63;100.00;99011.66;2622791;28;20055;-82
2022/10/13 01:47:21;;;;;;;57.47;7.13;;;;;;;5.68;100.00;99004.72;2622310;28;20392;-82
2022/10/13 01:48:39;;;;;;;11.13;6.22;;;;;;;5.66;100.00;98996.06;2621008;28;20597;-80
2022/10/13 01:49:56;;;;;;;59.42;7.43;;;;;;;5.57;100.00;98993.44;2623630;28;20060;-79
2022/10/13 01:51:17;;;;;;;126.00;10.05;;;;;;;5.51;100.00;98995.19;2624038;28;20479;-85
2022/10/13 01:52:36;;;;;;;;;;;;;;;5.47;100.00;98995.16;2622499;28;20050;-79
2022/10/13 01:53:52;;;;;;;78.93;7.97;;;;;;;5.40;100.00;99004.69;2624193;28;19924;-80
2022/10/13 01:55:10;;;;;;;53.63;7.13;;;;;;;5.34;100.00;98999.50;2623972;28;20059;-80
2022/10/13 01:56:26;;;;;;;74.32;7.57;;;;;;;5.39;100.00;99008.13;2625127;28;20075;-80
2022/10/13 01:57:44;;;;;;;119.05;10.68;;;;;;;5.39;100.00;98994.31;2623170;28;20486;-88
2022/10/13 01:59:05;;;;;;;92.80;9.77;;;;;;;5.39;100.00;98997.75;2627230;28;20767;-80
2022/10/13 02:00:21;;;;;;;58.50;6.93;;;;;;;5.39;100.00;98997.75;2625900;28;20071;-83
2022/10/13 02:01:53;;;;;;;46.85;6.78;;;;;;;5.37;100.00;99004.69;2623607;28;20127;-80
2022/10/13 02:03:30;;;;;;;22.80;7.15;;;;;;;5.29;100.00;98999.47;2623344;28;20052;-80
2022/10/13 02:05:16;;;;;;;40.40;7.15;;;;;;;5.21;100.00;98999.44;2624889;28;20536;-79
2022/10/13 02:06:43;;;;;;;48.53;7.50;;;;;;;5.28;100.00;99009.84;2623508;28;20577;-80
2022/10/13 02:08:19;;;;;;;21.23;6.80;;;;;;;5.24;100.00;98998.59;2625473;28;20476;-80
2022/10/13 02:09:57;;;;;;;57.90;7.95;;;;;;;5.43;100.00;98996.03;2625599;28;20775;-83
2022/10/13 02:11:15;;;;;;;63.72;8.20;;;;;;;5.51;100.00;99002.97;2625744;28;20066;-80
2022/10/13 02:12:38;;;;;;;56.17;8.15;;;;;;;5.49;100.00;99002.09;2624178;28;20048;-81
2022/10/13 02:14:11;;;;;;;52.33;8.55;;;;;;;5.51;100.00;99002.09;2624909;28;20070;-80
2022/10/13 02:15:36;;;;;;;34.60;6.18;;;;;;;5.52;100.00;98998.66;2621403;28;20045;-80
2022/10/13 02:16:54;;;;;;;51.70;7.63;;;;;;;5.64;100.00;99000.41;2622359;28;20048;-80
2022/10/13 02:18:13;;;;;;;87.22;8.85;;;;;;;5.56;100.00;98996.91;2622380;28;20097;-80
2022/10/13 02:19:33;;;;;;;104.25;8.48;;;;;;;5.29;100.00;99001.19;2625493;28;20052;-80
2022/10/13 02:20:49;;;;;;;42.72;6.60;;;;;;;5.38;100.00;99011.59;2624022;28;20061;-80
2022/10/13 02:22:09;;;;;;;92.35;8.85;;;;;;;5.47;100.00;99001.25;2623628;28;20134;-80
2022/10/13 02:23:26;;;;;;;112.03;9.75;;;;;;;5.53;100.00;99000.38;2623172;28;20071;-81
2022/10/13 02:24:41;;;;;;;141.73;14.57;;;;;;;5.56;100.00;98995.19;2623111;28;20080;-80
2022/10/13 02:25:59;;;;;;;116.63;12.10;;;;;;;5.55;100.00;98992.59;2622682;28;20052;-81
2022/10/13 02:27:15;;;;;;;113.55;10.23;;;;;;;5.57;100.00;98993.44;2623626;28;20052;-81
2022/10/13 02:28:30;;;;;;;107.78;10.02;;;;;;;5.50;100.00;98993.44;2623039;28;20128;-81
2022/10/13 02:29:51;;;;;;;117.72;9.20;;;;;;;5.62;100.00;98995.19;2622784;28;20057;-80
2022/10/13 02:31:08;;;;;;;77.97;9.13;;;;;;;5.63;100.00;98999.50;2624600;28;20487;-80
2022/10/13 02:32:24;;;;;;;19.05;6.82;;;;;;;5.59;100.00;98991.75;2621927;28;20102;-80
2022/10/13 02:33:39;;;;;;;95.65;10.07;;;;;;;5.60;100.00;98990.88;2620246;28;20713;-80
2022/10/13 02:34:55;;;;;;;126.82;12.00;;;;;;;5.58;100.00;98993.47;2620516;28;20049;-79
2022/10/13 02:36:11;;;;;;;105.65;10.70;;;;;;;5.55;100.00;98995.19;2623683;28;20053;-80
2022/10/13 02:37:27;;;;;;;139.45;11.02;;;;;;;5.56;100.00;98991.72;2623401;28;20098;-80
2022/10/13 02:38:43;;;;;;;109.60;10.25;;;;;;;5.53;100.00;98997.78;2623525;28;20569;-84
2022/10/13 02:39:58;;;;;;;60.90;8.13;;;;;;;5.49;100.00;98991.72;2622451;28;20418;-80
2022/10/13 02:41:14;;;;;;;108.55;9.63;;;;;;;5.60;100.00;98990.88;2621953;28;20058;-80
2022/10/13 02:42:29;;;;;;;117.75;10.30;;;;;;;5.53;100.00;99003.00;2622492;28;20513;-80
2022/10/13 02:43:45;;;;;;;123.65;9.52;;;;;;;5.52;100.00;98998.66;2623093;28;20047;-80
2022/10/13 02:45:01;;;;;;;138.93;11.82;;;;;;;5.44;100.00;98993.44;2621228;28;20052;-80
2022/10/13 02:46:16;;;;;;;110.35;9.35;;;;;;;5.50;100.00;98992.56;2622386;28;20087;-80
2022/10/13 02:47:32;;;;;;;104.90;10.38;;;;;;;5.54;100.00;98989.13;2622499;28;20044;-79
2022/10/13 02:48:47;;;;;;;100.65;9.38;;;;;;;5.45;100.00;98994.31;2620141;28;20048;-80
2022/10/13 02:50:04;;;;;;;74.95;7.80;;;;;;;5.46;100.00;98994.31;2620696;28;20135;-81
2022/10/13 02:51:19;;;;;;;28.45;7.43;;;;;;;5.47;100.00;98996.06;2624677;28;20052;-79
2022/10/13 02:52:35;;;;;;;64.20;8.85;;;;;;;5.47;100.00;98996.06;2621239;28;20079;-80
2022/10/13 02:53:51;;;;;;;42.40;7.90;;;;;;;5.43;100.00;98996.88;2622652;28;20048;-80
2022/10/13 02:55:07;;;;;;;74.90;10.18;;;;;;;5.45;100.00;98995.19;2620562;28;20442;-79
2022/10/13 02:56:22;;;;;;;58.15;8.48;;;;;;;5.48;100.00;98990.00;2624377;28;20056;-81
2022/10/13 02:57:38;;;;;;;26.65;7.22;;;;;;;5.42;100.00;98991.72;2623015;28;20131;-79
2022/10/13 02:58:54;;;;;;;55.33;7.57;;;;;;;5.43;100.00;98994.28;2623917;28;20055;-79
2022/10/13 03:00:10;;;;;;;61.10;9.35;;;;;;;5.43;100.00;98994.28;2623186;28;20051;-80
2022/10/13 03:01:25;;;;;;;67.20;7.75;;;;;;;5.35;100.00;98998.63;2623210;28;20112;-81
2022/10/13 03:02:41;;;;;;;46.67;7.68;;;;;;;5.42;100.00;98987.38;2622360;28;20052;-80
2022/10/13 03:03:58;;;;;;;31.58;6.82;;;;;;;5.47;100.00;98993.47;2624140;28;20979;-81
2022/10/13 03:05:13;;;;;;;36.38;6.55;;;;;;;5.09;100.00;98997.66;2623682;28;20106;-80
2022/10/13 03:06:29;;;;;;;41.20;8.05;;;;;;;5.35;100.00;98996.03;2622998;28;20553;-80
2022/10/13 03:07:44;;;;;;;49.80;7.75;;;;;;;5.40;100.00;98993.44;2620656;28;20562;-80
2022/10/13 03:09:01;;;;;;;15.15;6.25;;;;;;;5.41;100.00;98990.81;2622123;28;20321;-81
2022/10/13 03:10:16;;;;;;;37.65;7.28;;;;;;;5.42;100.00;98989.97;2624194;28;20093;-83
2022/10/13 03:11:32;;;;;;;42.42;8.23;;;;;;;5.58;100.00;98993.47;2622760;28;20548;-80
2022/10/13 03:12:48;;;;;;;26.75;7.25;;;;;;;5.64;100.00;98979.63;2626633;28;20125;-79
2022/10/13 03:14:04;;;;;;;22.95;6.82;;;;;;;5.56;100.00;98986.53;2623401;28;20052;-81
2022/10/13 03:15:19;;;;;;;23.30;7.10;;;;;;;5.47;100.00;98990.84;2621708;28;20407;-80
2022/10/13 03:16:35;;;;;;;41.42;7.93;;;;;;;5.44;100.00;98980.44;2621727;28;20040;-80
2022/10/13 03:17:51;;;;;;;21.67;7.28;;;;;;;5.50;100.00;98987.38;2623020;28;20051;-80
2022/10/13 03:19:06;;;;;;;19.73;6.75;;;;;;;5.52;100.00;98983.09;2622641;28;20494;-80
2022/10/13 03:20:22;;;;;;;42.83;7.47;;;;;;;5.55;100.00;98983.06;2623155;28;20142;-80
2022/10/13 03:21:39;;;;;;;32.80;7.25;;;;;;;5.55;100.00;98982.19;2621969;28;20059;-80
2022/10/13 03:22:54;;;;;;;34.70;7.30;;;;;;;5.49;100.00;98980.44;2622486;28;20056;-80
2022/10/13 03:24:10;;;;;;;31.83;7.88;;;;;;;5.49;100.00;98983.03;2620440;28;20068;-80
2022/10/13 03:25:25;;;;;;;32.30;7.45;;;;;;;5.54;100.00;98983.94;2620706;28;20416;-80
2022/10/13 03:26:41;;;;;;;19.25;6.95;;;;;;;5.64;100.00;98980.47;2621679;28;20052;-81
2022/10/13 03:27:57;;;;;;;29.13;6.93;;;;;;;5.58;100.00;98982.19;2624414;28;20055;-80
2022/10/13 03:29:21;;;;;;;25.63;7.60;;;;;;;5.46;100.00;98989.13;2622101;28;20106;-80
2022/10/13 03:30:36;;;;;;;22.02;6.97;;;;;;;5.55;100.00;98984.78;2623590;28;20040;-79
2022/10/13 03:31:52;;;;;;;20.27;7.55;;;;;;;5.72;100.00;98974.41;2620868;28;20056;-79
2022/10/13 03:33:08;;;;;;;25.83;7.40;;;;;;;5.62;100.00;98979.59;2621717;28;20806;-80
2022/10/13 03:34:23;;;;;;;17.58;7.30;;;;;;;5.65;100.00;98977.00;2625325;28;20056;-80
2022/10/13 03:35:39;;;;;;;17.80;7.18;;;;;;;5.66;100.00;98977.88;2623270;28;20079;-80
2022/10/13 03:36:54;;;;;;;13.20;7.28;;;;;;;5.67;100.00;98979.59;2620142;28;20052;-80
2022/10/13 03:38:10;;;;;;;13.95;6.97;;;;;;;5.64;100.00;98977.88;2620316;28;20094;-85
2022/10/13 03:39:26;;;;;;;12.30;7.07;;;;;;;5.80;100.00;98983.94;2620312;28;20494;-78
2022/10/13 03:40:41;;;;;;;18.88;7.25;;;;;;;5.87;100.00;98977.00;2621912;28;20113;-79
2022/10/13 03:41:57;;;;;;;11.82;6.50;;;;;;;5.77;100.00;98978.75;2621559;28;20048;-79
2022/10/13 03:43:12;;;;;;;12.75;6.88;;;;;;;5.83;100.00;98975.28;2620898;28;20040;-79
2022/10/13 03:44:28;;;;;;;12.20;6.25;;;;;;;5.89;100.00;98971.84;2622843;28;20165;-79
2022/10/13 03:45:43;;;;;;;11.85;7.07;;;;;;;5.90;100.00;98982.22;2619259;28;20067;-80
2022/10/13 03:46:59;;;;;;;13.45;6.90;;;;;;;6.04;100.00;98971.84;2623917;28;20051;-81
2022/10/13 03:48:15;;;;;;;15.65;7.18;;;;;;;5.92;100.00;98977.88;2625464;28;20059;-81
2022/10/13 03:49:30;;;;;;;12.70;6.78;;;;;;;5.89;100.00;98979.63;2622450;28;20902;-81
2022/10/13 03:50:46;;;;;;;13.90;6.93;;;;;;;6.06;100.00;98969.22;2621700;28;20499;-80
2022/10/13 03:52:01;;;;;;;12.60;6.65;;;;;;;5.91;100.00;98973.53;2623068;28;20498;-83
2022/10/13 03:53:18;;;;;;;12.27;7.05;;;;;;;5.86;100.00;98967.50;2621125;28;20048;-81
2022/10/13 03:54:33;;;;;;;13.57;6.75;;;;;;;5.76;100.00;98965.75;2622157;28;20586;-81
2022/10/13 03:55:50;;;;;;;12.32;7.00;;;;;;;5.68;100.00;98962.31;2621280;28;20086;-80
2022/10/13 03:57:06;;;;;;;13.63;7.82;;;;;;;5.90;100.00;98969.22;2626323;28;20079;-86
2022/10/13 03:58:24;;;;;;;13.15;7.70;;;;;;;5.86;100.00;98964.91;2622599;28;20059;-81
2022/10/13 03:59:40;;;;;;;13.90;7.18;;;;;;;5.83;100.00;98967.50;2625488;28;20105;-80
2022/10/13 04:01:01;;;;;;;14.13;7.00;;;;;;;5.94;100.00;98973.56;2626742;28;20058;-81
2022/10/13 04:02:16;;;;;;;14.18;7.57;;;;;;;5.86;100.00;98970.09;2624135;28;20411;-82
2022/10/13 04:03:33;;;;;;;11.68;7.00;;;;;;;5.60;100.00;98981.34;2623193;28;20143;-81
2022/10/13 04:04:49;;;;;;;12.70;6.82;;;;;;;5.69;100.00;98984.81;2623115;28;20060;-81
2022/10/13 04:06:05;;;;;;;18.50;7.43;;;;;;;5.63;100.00;98991.72;2624888;28;20051;-81
2022/10/13 04:07:20;;;;;;;19.10;7.65;;;;;;;5.57;100.00;98985.66;2624380;28;20445;-80
2022/10/13 04:08:37;;;;;;;26.05;8.00;;;;;;;5.61;100.00;98988.25;2623139;28;20055;-80
2022/10/13 04:09:52;;;;;;;19.00;7.40;;;;;;;5.76;100.00;98982.22;2621999;28;20114;-80
2022/10/13 04:11:11;;;;;;;19.00;7.43;;;;;;;5.55;100.00;98988.28;2625335;28;20080;-79
2022/10/13 04:12:26;;;;;;;25.45;7.97;;;;;;;5.78;100.00;98987.41;2625983;28;20098;-80
2022/10/13 04:13:43;;;;;;;20.98;7.72;;;;;;;6.00;100.00;98970.06;2622242;28;20449;-81
2022/10/13 04:14:59;;;;;;;20.05;7.35;;;;;;;5.96;100.00;98972.69;2627188;28;20503;-80
2022/10/13 04:16:18;;;;;;;14.85;7.15;;;;;;;5.89;100.00;98975.28;2622790;28;20056;-81
2022/10/13 04:17:34;;;;;;;10.88;6.50;;;;;;;5.94;100.00;98980.47;2626419;28;20502;-81
2022/10/13 04:18:56;;;;;;;14.68;6.70;;;;;;;5.96;100.00;98977.88;2624364;28;20048;-81
2022/10/13 04:20:11;;;;;;;17.50;6.93;;;;;;;5.92;100.00;98974.41;2625398;28;20066;-81
2022/10/13 04:21:29;;;;;;;14.10;7.15;;;;;;;6.02;100.00;98976.19;2624339;28;20047;-81
2022/10/13 04:22:44;;;;;;;14.15;6.80;;;;;;;6.11;100.00;98974.44;2626910;28;20966;-82
2022/10/13 04:24:01;;;;;;;14.02;6.90;;;;;;;6.06;100.00;98969.22;2624759;28;20052;-80
2022/10/13 04:25:17;;;;;;;11.65;6.70;;;;;;;5.94;100.00;98965.78;2623592;28;20479;-81
2022/10/13 04:26:35;;;;;;;13.63;6.43;;;;;;;5.91;100.00;98970.09;2623014;28;20052;-84
2022/10/13 04:27:50;;;;;;;12.52;6.93;;;;;;;5.94;100.00;98964.88;2623697;28;20127;-81
2022/10/13 04:29:08;;;;;;;14.52;7.65;;;;;;;5.96;100.00;98963.16;2625951;28;20545;-81
2022/10/13 04:30:23;;;;;;;14.43;7.50;;;;;;;6.00;100.00;98964.88;2624532;28;20048;-81
2022/10/13 04:31:41;;;;;;;12.95;7.07;;;;;;;6.01;100.00;98965.75;2622636;28;20089;-81
2022/10/13 04:32:57;;;;;;;11.73;6.53;;;;;;;6.08;100.00;98963.16;2623833;28;20045;-82
2022/10/13 04:34:12;;;;;;;13.30;7.25;;;;;;;5.98;100.00;98969.19;2623147;28;20089;-82
2022/10/13 04:35:28;;;;;;;10.65;6.57;;;;;;;6.07;100.00;98958.84;2623653;28;20058;-81
2022/10/13 04:36:44;;;;;;;13.52;7.32;;;;;;;6.05;100.00;98963.19;2624330;28;20052;-81
2022/10/13 04:37:59;;;;;;;12.23;7.35;;;;;;;5.94;100.00;98955.38;2624110;28;20986;-81
2022/10/13 04:39:15;;;;;;;14.55;7.57;;;;;;;6.06;100.00;98964.91;2624684;28;20051;-80
2022/10/13 04:40:31;;;;;;;13.98;7.38;;;;;;;6.15;100.00;98964.03;2623452;28;20544;-80
2022/10/13 04:41:46;;;;;;;13.68;6.70;;;;;;;6.18;100.00;98957.97;2623009;28;20822;-81
2022/10/13 04:43:02;;;;;;;10.32;6.18;;;;;;;6.18;100.00;98968.38;2622967;28;20110;-81
2022/10/13 04:44:18;;;;;;;11.88;7.03;;;;;;;6.22;100.00;98965.75;2624003;28;20060;-81
2022/10/13 04:45:33;;;;;;;12.65;6.68;;;;;;;6.26;100.00;98966.59;2611720;28;20049;-81
2022/10/13 04:46:49;;;;;;;14.10;7.05;;;;;;;6.15;100.00;98963.19;2614909;28;20051;-80
2022/10/13 04:48:07;;;;;;;17.33;7.47;;;;;;;6.16;100.00;98967.50;2623426;28;20109;-81
2022/10/13 04:49:24;;;;;;;16.20;7.32;;;;;;;6.02;100.00;98965.78;2625577;28;20044;-81
2022/10/13 04:50:39;;;;;;;26.52;7.80;;;;;;;6.20;100.00;98964.03;2615397;28;20215;-81
2022/10/13 04:51:55;;;;;;;12.85;7.45;;;;;;;6.22;100.00;98963.16;2620233;28;20336;-80
2022/10/13 04:53:11;;;;;;;15.95;8.13;;;;;;;6.24;100.00;98963.13;2625916;28;20048;-80
2022/10/13 04:54:27;;;;;;;15.30;8.02;;;;;;;6.36;100.00;98964.88;2625847;28;20055;-80
2022/10/13 04:55:42;;;;;;;18.17;7.35;;;;;;;6.28;100.00;98964.00;2627428;28;20047;-81
2022/10/13 04:56:58;;;;;;;14.90;7.25;;;;;;;6.38;100.00;98963.13;2626325;28;20160;-82
2022/10/13 04:58:13;;;;;;;25.67;7.80;;;;;;;6.50;100.00;98970.91;2625385;28;20102;-81
2022/10/13 04:59:29;;;;;;;12.10;7.00;;;;;;;6.54;100.00;98958.72;2625429;28;20575;-81
2022/10/13 05:00:45;;;;;;;16.35;7.47;;;;;;;6.57;100.00;98957.84;2626555;28;20048;-83
2022/10/13 05:02:02;;;;;;;19.52;8.15;;;;;;;6.60;100.00;98963.03;2623503;28;20048;-87
2022/10/13 05:03:18;;;;;;;18.80;8.02;;;;;;;6.55;100.00;98964.81;2622647;28;20051;-82
2022/10/13 05:04:35;;;;;;;14.68;7.13;;;;;;;6.58;100.00;98963.06;2624000;28;20048;-84
2022/10/13 05:05:52;;;;;;;10.85;6.43;;;;;;;6.59;100.00;98959.59;2624417;28;20044;-81
2022/10/13 05:07:07;;;;;;;14.90;6.72;;;;;;;6.15;100.00;98961.44;2624554;28;20048;-83
2022/10/13 05:08:23;;;;;;;25.45;7.68;;;;;;;6.23;100.00;98961.41;2623135;28;20055;-81
2022/10/13 05:09:39;;;;;;;15.43;7.35;;;;;;;6.30;100.00;98962.25;2622381;28;20063;-81
2022/10/13 05:11:00;;;;;;;13.63;7.72;;;;;;;6.29;100.00;98958.81;2622667;28;20477;-85
2022/10/13 05:12:16;;;;;;;20.80;7.67;;;;;;;6.33;100.00;98954.44;2622798;28;20044;-80
2022/10/13 05:13:31;;;;;;;23.02;7.55;;;;;;;6.34;100.00;98962.25;2623094;28;20469;-83
2022/10/13 05:14:47;;;;;;;27.88;7.63;;;;;;;6.41;100.00;98957.03;2619417;28;20852;-85
2022/10/13 05:16:11;;;;;;;33.75;8.35;;;;;;;6.45;100.00;98959.63;2620597;28;20052;-81
2022/10/13 05:17:30;;;;;;;23.48;7.72;;;;;;;6.57;100.00;98960.47;2623536;28;20047;-81
2022/10/13 05:18:46;;;;;;;23.45;7.85;;;;;;;6.48;100.00;98961.34;2624751;28;20048;-81
2022/10/13 05:20:03;;;;;;;18.10;7.97;;;;;;;6.61;100.00;98954.38;2622298;28;20052;-82
2022/10/13 05:21:24;;;;;;;23.00;8.07;;;;;;;6.64;100.00;98954.38;2625213;28;20502;-82
2022/10/13 05:22:40;;;;;;;25.27;8.63;;;;;;;6.70;100.00;98950.84;2624142;28;20048;-79
2022/10/13 05:23:56;;;;;;;26.48;8.43;;;;;;;6.64;100.00;98954.38;2624342;28;20476;-81
2022/10/13 05:25:12;;;;;;;23.15;8.02;;;;;;;6.60;100.00;98958.72;2623042;28;20133;-82
2022/10/13 05:26:30;;;;;;;18.30;8.32;;;;;;;6.50;100.00;98951.81;2620658;28;21282;-80
2022/10/13 05:27:46;;;;;;;15.55;7.95;;;;;;;6.59;100.00;98951.78;2620921;28;20044;-80
2022/10/13 05:29:02;;;;;;;15.65;7.75;;;;;;;6.73;100.00;98950.88;2621230;28;20431;-81
2022/10/13 05:30:17;;;;;;;17.58;7.28;;;;;;;6.82;100.00;98947.34;2620063;28;20052;-79
2022/10/13 05:31:33;;;;;;;15.48;8.00;;;;;;;6.82;100.00;98950.81;2621446;28;20044;-79
2022/10/13 05:32:49;;;;;;;20.70;8.63;;;;;;;6.87;100.00;98951.69;2619253;28;20048;-85
2022/10/13 05:34:04;;;;;;;33.10;8.35;;;;;;;6.88;100.00;98953.41;2620488;28;20044;-79
2022/10/13 05:35:20;;;;;;;18.85;7.72;;;;;;;6.87;100.00;98954.28;2620941;28;20052;-79
2022/10/13 05:36:36;;;;;;;14.77;7.75;;;;;;;6.81;100.00;98953.44;2623078;28;20049;-79
2022/10/13 05:37:51;;;;;;;18.05;7.78;;;;;;;6.86;100.00;98951.66;2621671;28;20048;-81
2022/10/13 05:39:07;;;;;;;15.52;8.27;;;;;;;6.79;100.00;98943.03;2622796;28;20580;-79
2022/10/13 05:40:23;;;;;;;16.80;8.50;;;;;;;6.75;100.00;98943.91;2622837;28;20542;-80
2022/10/13 05:41:39;;;;;;;18.48;7.63;;;;;;;6.76;100.00;98943.03;2626411;28;20059;-79
2022/10/13 05:42:54;;;;;;;21.05;8.63;;;;;;;6.83;100.00;98941.28;2624885;28;20044;-83
2022/10/13 05:44:10;;;;;;;19.48;8.25;;;;;;;6.74;100.00;98948.25;2626472;28;20409;-78
2022/10/13 05:45:28;;;;;;;20.13;8.70;;;;;;;6.91;100.00;98945.56;2623392;28;20052;-79
2022/10/13 05:46:45;;;;;;;17.42;7.63;;;;;;;7.05;100.00;98947.25;2625379;28;20044;-80
2022/10/13 05:48:00;;;;;;;19.83;8.00;;;;;;;6.81;100.00;98943.03;2625647;28;20049;-79
2022/10/13 05:49:16;;;;;;;17.63;7.70;;;;;;;6.94;100.00;98942.09;2624163;28;20406;-84
2022/10/13 05:50:33;;;;;;;15.55;8.10;;;;;;;6.98;100.00;98940.31;2623865;28;20063;-82
2022/10/13 05:51:56;;;;;;;14.88;7.90;;;;;;;7.07;100.00;98942.88;2624470;28;20056;-84
2022/10/13 05:53:11;;;;;;;15.52;8.27;;;;;;;7.04;100.00;98940.31;2623587;28;20052;-84
2022/10/13 05:54:33;;;;;;;13.98;7.75;;;;;;;7.13;100.00;98940.25;2623017;28;20048;-80
2022/10/13 05:55:49;;;;;;;18.25;8.30;;;;;;;7.01;100.00;98941.19;2624343;28;20048;-80
2022/10/13 05:57:11;;;;;;;13.07;7.40;;;;;;;6.93;100.00;98937.75;2624237;28;20483;-80
2022/10/13 05:58:26;;;;;;;12.73;7.28;;;;;;;7.17;100.00;98931.53;2622587;28;20052;-80
2022/10/13 05:59:47;;;;;;;12.77;7.60;;;;;;;7.19;100.00;98931.50;2621278;28;20040;-80
2022/10/13 06:01:08;;;;;;;14.25;7.63;;;;;;;6.79;100.00;98935.22;2621877;28;20063;-81
2022/10/13 06:02:27;;;;;;;14.90;7.38;;;;;;;6.77;100.00;98937.84;2621251;28;20601;-81
2022/10/13 06:03:43;;;;;;;14.32;8.05;;;;;;;6.88;100.00;98931.69;2625390;28;20067;-82